sensor_id;sensor_type;location;lat;lon;timestamp;pressure;altitude;pressure_sealevel;temperature;humidity
30584;BME280;17357;59.404;18.414;2022-08-24T00:01:55;102346.75;;;22.65;74.64
30584;BME280;17357;59.404;18.414;2022-08-24T00:04:21;102348.25;;;22.63;74.93
30584;BME280;17357;59.404;18.414;2022-08-24T00:06:46;102336.47;;;22.61;75.02
30584;BME280;17357;59.404;18.414;2022-08-24T00:09:12;102347.22;;;22.67;75.12
30584;BME280;17357;59.404;18.414;2022-08-24T00:11:37;102340.38;;;22.68;75.30
30584;BME280;17357;59.404;18.414;2022-08-24T00:14:02;102343.69;;;22.70;75.25
30584;BME280;17357;59.404;18.414;2022-08-24T00:16:28;102341.69;;;22.71;75.35
30584;BME280;17357;59.404;18.414;2022-08-24T00:18:53;102351.84;;;22.72;75.50
30584;BME280;17357;59.404;18.414;2022-08-24T00:21:20;102351.97;;;22.75;75.46
30584;BME280;17357;59.404;18.414;2022-08-24T00:23:45;102343.34;;;22.72;75.73
30584;BME280;17357;59.404;18.414;2022-08-24T00:26:14;102344.88;;;22.69;75.74
30584;BME280;17357;59.404;18.414;2022-08-24T00:28:40;102350.44;;;22.78;75.64
30584;BME280;17357;59.404;18.414;2022-08-24T00:31:05;102354.09;;;22.78;75.72
30584;BME280;17357;59.404;18.414;2022-08-24T00:33:32;102343.16;;;22.77;76.01
30584;BME280;17357;59.404;18.414;2022-08-24T00:35:57;102338.31;;;22.77;75.90
30584;BME280;17357;59.404;18.414;2022-08-24T00:38:23;102348.09;;;22.80;76.59
30584;BME280;17357;59.404;18.414;2022-08-24T00:40:49;102351.41;;;22.82;76.78
30584;BME280;17357;59.404;18.414;2022-08-24T00:43:19;102347.41;;;22.83;77.15
30584;BME280;17357;59.404;18.414;2022-08-24T00:45:53;102344.09;;;22.81;77.50
30584;BME280;17357;59.404;18.414;2022-08-24T00:48:24;102334.44;;;22.82;77.37
30584;BME280;17357;59.404;18.414;2022-08-24T00:50:59;102335.63;;;22.81;77.66
30584;BME280;17357;59.404;18.414;2022-08-24T00:55:59;102344.22;;;22.84;77.00
30584;BME280;17357;59.404;18.414;2022-08-24T00:58:37;102337.13;;;22.78;76.84
30584;BME280;17357;59.404;18.414;2022-08-24T01:01:05;102324.97;;;22.78;76.18
30584;BME280;17357;59.404;18.414;2022-08-24T01:03:33;102341.88;;;22.86;75.78
30584;BME280;17357;59.404;18.414;2022-08-24T01:05:59;102342.94;;;22.82;75.13
30584;BME280;17357;59.404;18.414;2022-08-24T01:08:25;102348.22;;;22.83;74.80
30584;BME280;17357;59.404;18.414;2022-08-24T01:11:12;102357.41;;;22.80;74.20
30584;BME280;17357;59.404;18.414;2022-08-24T01:13:40;102347.41;;;22.83;73.94
30584;BME280;17357;59.404;18.414;2022-08-24T01:16:08;102347.88;;;22.85;73.73
30584;BME280;17357;59.404;18.414;2022-08-24T01:18:35;102363.19;;;22.84;73.27
30584;BME280;17357;59.404;18.414;2022-08-24T01:23:47;102372.88;;;22.83;73.12
30584;BME280;17357;59.404;18.414;2022-08-24T01:26:23;102368.38;;;22.82;72.87
30584;BME280;17357;59.404;18.414;2022-08-24T01:28:54;102360.34;;;22.84;73.04
30584;BME280;17357;59.404;18.414;2022-08-24T01:31:22;102362.84;;;22.85;72.84
30584;BME280;17357;59.404;18.414;2022-08-24T01:33:51;102370.50;;;22.85;72.67
30584;BME280;17357;59.404;18.414;2022-08-24T01:36:33;102374.03;;;22.82;72.65
30584;BME280;17357;59.404;18.414;2022-08-24T01:39:05;102360.34;;;22.84;73.00
30584;BME280;17357;59.404;18.414;2022-08-24T01:41:32;102358.72;;;22.83;72.88
30584;BME280;17357;59.404;18.414;2022-08-24T01:43:58;102367.81;;;22.88;72.67
30584;BME280;17357;59.404;18.414;2022-08-24T01:46:24;102367.81;;;22.88;72.70
30584;BME280;17357;59.404;18.414;2022-08-24T01:48:49;102358.50;;;22.88;72.27
30584;BME280;17357;59.404;18.414;2022-08-24T01:51:14;102357.69;;;22.87;72.31
30584;BME280;17357;59.404;18.414;2022-08-24T01:53:40;102367.34;;;22.86;72.38
30584;BME280;17357;59.404;18.414;2022-08-24T01:56:05;102356.84;;;22.87;72.17
30584;BME280;17357;59.404;18.414;2022-08-24T01:58:31;102355.31;;;22.89;71.96
30584;BME280;17357;59.404;18.414;2022-08-24T02:00:56;102360.97;;;22.89;71.95
30584;BME280;17357;59.404;18.414;2022-08-24T02:03:22;102364.50;;;22.86;72.08
30584;BME280;17357;59.404;18.414;2022-08-24T02:05:48;102361.34;;;22.88;71.94
30584;BME280;17357;59.404;18.414;2022-08-24T02:08:15;102366.16;;;22.87;72.11
30584;BME280;17357;59.404;18.414;2022-08-24T02:10:40;102350.13;;;22.91;72.00
30584;BME280;17357;59.404;18.414;2022-08-24T02:13:05;102356.63;;;22.92;72.21
30584;BME280;17357;59.404;18.414;2022-08-24T02:15:36;102357.31;;;22.89;72.02
30584;BME280;17357;59.404;18.414;2022-08-24T02:18:05;102357.44;;;22.92;72.06
30584;BME280;17357;59.404;18.414;2022-08-24T02:20:31;102359.78;;;22.90;72.19
30584;BME280;17357;59.404;18.414;2022-08-24T02:22:56;102363.78;;;22.89;72.31
30584;BME280;17357;59.404;18.414;2022-08-24T02:25:22;102360.63;;;22.91;72.40
30584;BME280;17357;59.404;18.414;2022-08-24T02:27:49;102367.94;;;22.92;72.59
30584;BME280;17357;59.404;18.414;2022-08-24T02:30:15;102367.94;;;22.92;72.54
30584;BME280;17357;59.404;18.414;2022-08-24T02:32:41;102368.41;;;22.94;72.13
30584;BME280;17357;59.404;18.414;2022-08-24T02:35:07;102380.56;;;22.95;72.59
30584;BME280;17357;59.404;18.414;2022-08-24T02:37:33;102376.91;;;22.94;72.45
30584;BME280;17357;59.404;18.414;2022-08-24T02:39:58;102385.41;;;22.94;72.78
30584;BME280;17357;59.404;18.414;2022-08-24T02:42:24;102380.56;;;22.95;72.65
30584;BME280;17357;59.404;18.414;2022-08-24T02:44:49;102375.25;;;22.93;72.97
30584;BME280;17357;59.404;18.414;2022-08-24T02:47:14;102375.69;;;22.95;73.56
30584;BME280;17357;59.404;18.414;2022-08-24T02:49:40;102361.78;;;22.90;74.20
30584;BME280;17357;59.404;18.414;2022-08-24T02:52:05;102375.25;;;22.93;74.58
30584;BME280;17357;59.404;18.414;2022-08-24T02:54:30;102376.91;;;22.94;74.97
30584;BME280;17357;59.404;18.414;2022-08-24T02:56:56;102371.34;;;22.98;75.14
30584;BME280;17357;59.404;18.414;2022-08-24T02:59:21;102344.59;;;22.95;75.28
30584;BME280;17357;59.404;18.414;2022-08-24T03:01:47;102311.44;;;22.96;75.45
30584;BME280;17357;59.404;18.414;2022-08-24T03:04:14;102310.75;;;22.99;75.41
30584;BME280;17357;59.404;18.414;2022-08-24T03:06:39;102325.25;;;22.97;75.55
30584;BME280;17357;59.404;18.414;2022-08-24T03:09:06;102364.03;;;22.97;75.50
30584;BME280;17357;59.404;18.414;2022-08-24T03:11:32;102352.63;;;22.93;75.28
30584;BME280;17357;59.404;18.414;2022-08-24T03:13:57;102347.41;;;22.95;74.88
30584;BME280;17357;59.404;18.414;2022-08-24T03:16:24;102339.63;;;22.92;74.47
30584;BME280;17357;59.404;18.414;2022-08-24T03:18:49;102339.63;;;22.92;74.24
30584;BME280;17357;59.404;18.414;2022-08-24T03:21:15;102341.28;;;22.93;74.23
30584;BME280;17357;59.404;18.414;2022-08-24T03:23:41;102342.13;;;22.93;74.06
30584;BME280;17357;59.404;18.414;2022-08-24T03:26:06;102343.63;;;22.91;74.00
30584;BME280;17357;59.404;18.414;2022-08-24T03:28:31;102340.81;;;22.91;73.80
30584;BME280;17357;59.404;18.414;2022-08-24T03:30:57;102321.84;;;22.91;73.92
30584;BME280;17357;59.404;18.414;2022-08-24T03:33:22;102331.50;;;22.90;73.82
30584;BME280;17357;59.404;18.414;2022-08-24T03:35:48;102332.47;;;22.95;74.01
30584;BME280;17357;59.404;18.414;2022-08-24T03:38:13;102335.63;;;22.93;73.96
30584;BME280;17357;59.404;18.414;2022-08-24T03:40:39;102341.28;;;22.93;74.24
30584;BME280;17357;59.404;18.414;2022-08-24T03:43:05;102345.28;;;22.92;74.37
30584;BME280;17357;59.404;18.414;2022-08-24T03:45:31;102346.13;;;22.92;74.74
30584;BME280;17357;59.404;18.414;2022-08-24T03:47:56;102342.47;;;22.92;74.69
30584;BME280;17357;59.404;18.414;2022-08-24T03:50:22;102342.81;;;22.90;74.99
30584;BME280;17357;59.404;18.414;2022-08-24T03:52:49;102342.59;;;22.96;75.00
30584;BME280;17357;59.404;18.414;2022-08-24T03:55:14;102346.63;;;22.95;74.92
30584;BME280;17357;59.404;18.414;2022-08-24T03:57:40;102338.47;;;22.93;74.85
30584;BME280;17357;59.404;18.414;2022-08-24T04:00:08;102352.97;;;22.91;75.07
30584;BME280;17357;59.404;18.414;2022-08-24T04:02:34;102347.28;;;22.91;74.79
30584;BME280;17357;59.404;18.414;2022-08-24T04:05:00;102349.06;;;22.96;74.69
30584;BME280;17357;59.404;18.414;2022-08-24T04:07:26;102355.47;;;23.05;74.30
30584;BME280;17357;59.404;18.414;2022-08-24T04:09:52;102346.84;;;23.14;74.06
30584;BME280;17357;59.404;18.414;2022-08-24T04:12:17;102336.59;;;23.21;74.33
30584;BME280;17357;59.404;18.414;2022-08-24T04:14:43;102323.88;;;23.27;74.28
30584;BME280;17357;59.404;18.414;2022-08-24T04:17:08;102320.19;;;23.39;74.31
30584;BME280;17357;59.404;18.414;2022-08-24T04:19:36;102323.63;;;23.45;74.75
30584;BME280;17357;59.404;18.414;2022-08-24T04:22:01;102313.94;;;23.46;75.07
30584;BME280;17357;59.404;18.414;2022-08-24T04:24:27;102319.06;;;23.52;75.13
30584;BME280;17357;59.404;18.414;2022-08-24T04:26:52;102320.81;;;23.57;75.58
30584;BME280;17357;59.404;18.414;2022-08-24T04:29:19;102323.38;;;23.62;75.76
30584;BME280;17357;59.404;18.414;2022-08-24T04:31:46;102315.25;;;23.60;76.38
30584;BME280;17357;59.404;18.414;2022-08-24T04:34:12;102321.97;;;23.68;76.46
30584;BME280;17357;59.404;18.414;2022-08-24T04:36:39;102315.56;;;23.71;76.91
30584;BME280;17357;59.404;18.414;2022-08-24T04:39:06;102314.03;;;23.73;77.08
30584;BME280;17357;59.404;18.414;2022-08-24T04:41:31;102321.09;;;23.80;77.27
30584;BME280;17357;59.404;18.414;2022-08-24T04:43:58;102325.03;;;23.75;78.03
30584;BME280;17357;59.404;18.414;2022-08-24T04:46:23;102331.13;;;23.77;78.14
30584;BME280;17357;59.404;18.414;2022-08-24T04:48:49;102331.25;;;23.81;78.68
30584;BME280;17357;59.404;18.414;2022-08-24T04:51:16;102341.53;;;23.85;78.76
30584;BME280;17357;59.404;18.414;2022-08-24T04:53:43;102332.19;;;23.85;79.41
30584;BME280;17357;59.404;18.414;2022-08-24T04:56:15;102342.00;;;23.87;79.73
30584;BME280;17357;59.404;18.414;2022-08-24T04:58:41;102330.03;;;23.94;80.19
30584;BME280;17357;59.404;18.414;2022-08-24T05:01:08;102334.53;;;23.95;80.63
30584;BME280;17357;59.404;18.414;2022-08-24T05:03:34;102341.13;;;23.99;81.27
30584;BME280;17357;59.404;18.414;2022-08-24T05:06:00;102335.81;;;23.97;81.48
30584;BME280;17357;59.404;18.414;2022-08-24T05:08:26;102339.00;;;23.96;81.04
30584;BME280;17357;59.404;18.414;2022-08-24T05:10:51;102330.16;;;23.97;81.06
30584;BME280;17357;59.404;18.414;2022-08-24T05:13:17;102335.81;;;23.97;80.62
30584;BME280;17357;59.404;18.414;2022-08-24T05:15:45;102330.97;;;23.98;80.21
30584;BME280;17357;59.404;18.414;2022-08-24T05:18:12;102335.09;;;24.00;80.32
30584;BME280;17357;59.404;18.414;2022-08-24T05:20:43;102325.31;;;23.98;80.19
30584;BME280;17357;59.404;18.414;2022-08-24T05:23:10;102327.78;;;23.99;79.90
30584;BME280;17357;59.404;18.414;2022-08-24T05:25:35;102327.41;;;24.01;80.14
30584;BME280;17357;59.404;18.414;2022-08-24T05:28:01;102333.22;;;24.04;79.81
30584;BME280;17357;59.404;18.414;2022-08-24T05:30:26;102337.94;;;24.00;79.67
30584;BME280;17357;59.404;18.414;2022-08-24T05:32:52;102336.03;;;24.04;79.73
30584;BME280;17357;59.404;18.414;2022-08-24T05:35:17;102344.16;;;24.06;79.87
30584;BME280;17357;59.404;18.414;2022-08-24T05:37:43;102343.13;;;24.10;79.68
30584;BME280;17357;59.404;18.414;2022-08-24T05:40:11;102346.78;;;24.11;79.84
30584;BME280;17357;59.404;18.414;2022-08-24T05:42:38;102347.13;;;24.09;79.94
30584;BME280;17357;59.404;18.414;2022-08-24T05:45:04;102348.41;;;24.12;79.99
30584;BME280;17357;59.404;18.414;2022-08-24T05:47:30;102355.28;;;24.11;80.24
30584;BME280;17357;59.404;18.414;2022-08-24T05:49:56;102351.34;;;24.15;80.04
30584;BME280;17357;59.404;18.414;2022-08-24T05:52:21;102349.69;;;24.14;80.15
30584;BME280;17357;59.404;18.414;2022-08-24T05:54:52;102346.88;;;24.14;80.04
30584;BME280;17357;59.404;18.414;2022-08-24T05:57:17;102346.44;;;24.00;80.55
30584;BME280;17357;59.404;18.414;2022-08-24T05:59:43;102339.53;;;24.13;80.34
30584;BME280;17357;59.404;18.414;2022-08-24T06:02:09;102339.31;;;24.19;80.10
30584;BME280;17357;59.404;18.414;2022-08-24T06:04:35;102346.13;;;24.17;80.05
30584;BME280;17357;59.404;18.414;2022-08-24T06:07:03;102344.97;;;24.19;79.94
30584;BME280;17357;59.404;18.414;2022-08-24T06:09:28;102350.31;;;24.20;79.89
30584;BME280;17357;59.404;18.414;2022-08-24T06:11:54;102358.81;;;24.20;79.90
30584;BME280;17357;59.404;18.414;2022-08-24T06:14:19;102355.16;;;24.20;80.10
30584;BME280;17357;59.404;18.414;2022-08-24T06:16:45;102354.06;;;24.24;80.55
30584;BME280;17357;59.404;18.414;2022-08-24T06:19:14;102353.22;;;24.24;80.38
30584;BME280;17357;59.404;18.414;2022-08-24T06:21:42;102357.72;;;24.25;80.70
30584;BME280;17357;59.404;18.414;2022-08-24T06:24:08;102350.88;;;24.26;80.82
30584;BME280;17357;59.404;18.414;2022-08-24T06:26:34;102352.06;;;24.25;80.79
30584;BME280;17357;59.404;18.414;2022-08-24T06:29:19;102347.31;;;24.29;81.34
30584;BME280;17357;59.404;18.414;2022-08-24T06:31:46;102354.63;;;24.30;81.14
30584;BME280;17357;59.404;18.414;2022-08-24T06:34:14;102352.97;;;24.29;81.28
30584;BME280;17357;59.404;18.414;2022-08-24T06:36:39;102335.50;;;24.27;81.56
30584;BME280;17357;59.404;18.414;2022-08-24T06:39:06;102354.63;;;24.30;81.59
30584;BME280;17357;59.404;18.414;2022-08-24T06:41:33;102361.94;;;24.31;82.11
30584;BME280;17357;59.404;18.414;2022-08-24T06:43:59;102368.94;;;24.33;82.27
30584;BME280;17357;59.404;18.414;2022-08-24T06:46:25;102366.91;;;24.34;82.14
30584;BME280;17357;59.404;18.414;2022-08-24T06:48:51;102375.88;;;24.36;82.43
30584;BME280;17357;59.404;18.414;2022-08-24T06:51:18;102369.50;;;24.39;82.13
30584;BME280;17357;59.404;18.414;2022-08-24T06:53:44;102382.03;;;24.38;82.91
30584;BME280;17357;59.404;18.414;2022-08-24T06:56:11;102375.53;;;24.37;83.06
30584;BME280;17357;59.404;18.414;2022-08-24T06:58:37;102388.16;;;24.40;83.67
30584;BME280;17357;59.404;18.414;2022-08-24T07:01:23;102377.88;;;24.35;84.32
30584;BME280;17357;59.404;18.414;2022-08-24T07:03:50;102378.91;;;24.43;84.64
30584;BME280;17357;59.404;18.414;2022-08-24T07:06:16;102368.06;;;24.45;84.91
30584;BME280;17357;59.404;18.414;2022-08-24T07:08:43;102389.56;;;24.46;84.84
30584;BME280;17357;59.404;18.414;2022-08-24T07:11:13;102384.13;;;24.41;84.77
30584;BME280;17357;59.404;18.414;2022-08-24T07:13:39;102388.59;;;24.42;84.71
30584;BME280;17357;59.404;18.414;2022-08-24T07:16:05;102386.13;;;24.40;84.11
30584;BME280;17357;59.404;18.414;2022-08-24T07:18:31;102379.41;;;24.45;83.66
30584;BME280;17357;59.404;18.414;2022-08-24T07:20:59;102391.81;;;24.40;83.43
30584;BME280;17357;59.404;18.414;2022-08-24T07:23:25;102391.44;;;24.42;83.36
30584;BME280;17357;59.404;18.414;2022-08-24T07:25:50;102391.00;;;24.40;82.63
30584;BME280;17357;59.404;18.414;2022-08-24T07:28:16;102399.13;;;24.41;82.67
30584;BME280;17357;59.404;18.414;2022-08-24T07:30:42;102403.16;;;24.40;82.19
30584;BME280;17357;59.404;18.414;2022-08-24T07:33:07;102408.47;;;24.42;82.41
30584;BME280;17357;59.404;18.414;2022-08-24T07:35:34;102407.19;;;24.39;82.31
30584;BME280;17357;59.404;18.414;2022-08-24T07:38:00;102399.13;;;24.41;82.45
30584;BME280;17357;59.404;18.414;2022-08-24T07:40:27;102400.78;;;24.42;82.14
30584;BME280;17357;59.404;18.414;2022-08-24T07:42:54;102395.22;;;24.46;82.18
30584;BME280;17357;59.404;18.414;2022-08-24T07:45:21;102393.56;;;24.45;82.32
30584;BME280;17357;59.404;18.414;2022-08-24T07:47:47;102390.75;;;24.45;82.76
30584;BME280;17357;59.404;18.414;2022-08-24T07:50:14;102407.75;;;24.45;82.96
30584;BME280;17357;59.404;18.414;2022-08-24T07:52:40;102398.41;;;24.44;83.04
30584;BME280;17357;59.404;18.414;2022-08-24T07:55:08;102400.53;;;24.47;82.68
30584;BME280;17357;59.404;18.414;2022-08-24T07:57:35;102402.53;;;24.47;83.20
30584;BME280;17357;59.404;18.414;2022-08-24T08:00:05;102412.00;;;24.51;82.68
30584;BME280;17357;59.404;18.414;2022-08-24T08:02:32;102405.19;;;24.40;80.16
30584;BME280;17357;59.404;18.414;2022-08-24T08:04:58;102407.56;;;24.13;76.49
30584;BME280;17357;59.404;18.414;2022-08-24T08:07:23;102402.78;;;23.90;73.62
30584;BME280;17357;59.404;18.414;2022-08-24T08:09:49;102398.44;;;23.80;71.30
30584;BME280;17357;59.404;18.414;2022-08-24T08:12:15;102391.72;;;23.72;70.06
30584;BME280;17357;59.404;18.414;2022-08-24T08:14:40;102393.03;;;23.63;68.67
30584;BME280;17357;59.404;18.414;2022-08-24T08:17:06;102392.06;;;23.59;68.19
30584;BME280;17357;59.404;18.414;2022-08-24T08:19:32;102396.78;;;23.55;67.08
30584;BME280;17357;59.404;18.414;2022-08-24T08:21:57;102409.19;;;23.50;67.44
30584;BME280;17357;59.404;18.414;2022-08-24T08:24:42;102404.06;;;23.44;67.44
30584;BME280;17357;59.404;18.414;2022-08-24T08:27:09;102411.75;;;23.43;67.63
30584;BME280;17357;59.404;18.414;2022-08-24T08:29:35;102416.59;;;23.43;67.64
30584;BME280;17357;59.404;18.414;2022-08-24T08:32:03;102414.81;;;23.38;67.35
30584;BME280;17357;59.404;18.414;2022-08-24T08:34:29;102403.25;;;23.31;67.60
30584;BME280;17357;59.404;18.414;2022-08-24T08:36:55;102414.22;;;23.32;67.36
30584;BME280;17357;59.404;18.414;2022-08-24T08:39:22;102413.03;;;23.33;67.56
30584;BME280;17357;59.404;18.414;2022-08-24T08:50:24;102408.31;;;23.25;68.25
30584;BME280;17357;59.404;18.414;2022-08-24T08:55:52;102404.78;;;23.28;69.20
30584;BME280;17357;59.404;18.414;2022-08-24T09:15:19;102410.19;;;23.21;69.67
30584;BME280;17357;59.404;18.414;2022-08-24T09:18:04;102402.06;;;23.20;69.22
30584;BME280;17357;59.404;18.414;2022-08-24T09:26:29;102401.09;;;23.16;68.16
30584;BME280;17357;59.404;18.414;2022-08-24T09:29:11;102405.94;;;23.15;68.16
30584;BME280;17357;59.404;18.414;2022-08-24T09:31:52;102410.78;;;23.15;67.57
30584;BME280;17357;59.404;18.414;2022-08-24T09:34:57;102413.94;;;23.13;67.20
30584;BME280;17357;59.404;18.414;2022-08-24T09:40:25;102404.78;;;23.16;67.58
30584;BME280;17357;59.404;18.414;2022-08-24T10:00:08;102396.84;;;23.10;68.01
30584;BME280;17357;59.404;18.414;2022-08-24T10:02:58;102406.16;;;23.10;67.77
30584;BME280;17357;59.404;18.414;2022-08-24T10:05:38;102409.13;;;23.14;67.72
30584;BME280;17357;59.404;18.414;2022-08-24T10:13:46;102415.34;;;23.07;66.66
30584;BME280;17357;59.404;18.414;2022-08-24T10:16:34;102409.00;;;23.10;66.75
30584;BME280;17357;59.404;18.414;2022-08-24T10:19:37;102409.69;;;23.07;66.75
30584;BME280;17357;59.404;18.414;2022-08-24T10:25:58;102418.31;;;23.11;66.68
30584;BME280;17357;59.404;18.414;2022-08-24T10:28:14;102417.16;;;23.12;67.10
30584;BME280;17357;59.404;18.414;2022-08-24T10:31:01;102415.13;;;23.12;67.01
30584;BME280;17357;59.404;18.414;2022-08-24T10:33:48;102408.84;;;23.07;67.04
30584;BME280;17357;59.404;18.414;2022-08-24T10:51:23;102424.81;;;23.11;67.30
30584;BME280;17357;59.404;18.414;2022-08-24T10:53:53;102420.91;;;23.16;67.37
30584;BME280;17357;59.404;18.414;2022-08-24T11:02:02;102419.59;;;23.13;68.68
30584;BME280;17357;59.404;18.414;2022-08-24T11:04:30;102413.25;;;23.16;69.07
30584;BME280;17357;59.404;18.414;2022-08-24T11:12:35;102415.13;;;23.12;68.98
30584;BME280;17357;59.404;18.414;2022-08-24T11:15:19;102413.84;;;23.10;68.81
30584;BME280;17357;59.404;18.414;2022-08-24T11:18:02;102415.00;;;23.09;68.40
30584;BME280;17357;59.404;18.414;2022-08-24T11:20:39;102419.38;;;23.06;68.11
30584;BME280;17357;59.404;18.414;2022-08-24T11:23:19;102413.22;;;23.04;67.66
30584;BME280;17357;59.404;18.414;2022-08-24T11:26:02;102420.41;;;23.02;67.54
30584;BME280;17357;59.404;18.414;2022-08-24T11:28:49;102412.41;;;23.04;67.21
30584;BME280;17357;59.404;18.414;2022-08-24T11:31:26;102420.41;;;23.02;67.07
30584;BME280;17357;59.404;18.414;2022-08-24T11:33:58;102412.41;;;23.04;67.01
30584;BME280;17357;59.404;18.414;2022-08-24T11:36:27;102418.06;;;23.04;66.84
30584;BME280;17357;59.404;18.414;2022-08-24T11:39:22;102419.94;;;23.00;66.65
30584;BME280;17357;59.404;18.414;2022-08-24T11:49:57;102424.22;;;23.06;66.70
30584;BME280;17357;59.404;18.414;2022-08-24T11:55:21;102423.59;;;23.00;67.28
30584;BME280;17357;59.404;18.414;2022-08-24T12:00:20;102433.53;;;23.06;67.15
30584;BME280;17357;59.404;18.414;2022-08-24T12:03:16;102423.25;;;23.02;67.38
30584;BME280;17357;59.404;18.414;2022-08-24T12:05:54;102420.41;;;23.02;67.43
30584;BME280;17357;59.404;18.414;2022-08-24T12:08:34;102414.41;;;23.03;67.09
30584;BME280;17357;59.404;18.414;2022-08-24T12:14:25;102403.44;;;23.02;66.68
30584;BME280;17357;59.404;18.414;2022-08-24T12:17:00;102402.16;;;22.99;66.93
30584;BME280;17357;59.404;18.414;2022-08-24T12:19:30;102404.50;;;22.97;66.68
30584;BME280;17357;59.404;18.414;2022-08-24T12:22:00;102416.41;;;23.03;66.52
30584;BME280;17357;59.404;18.414;2022-08-24T12:24:38;102416.06;;;23.04;66.61
30584;BME280;17357;59.404;18.414;2022-08-24T12:27:37;102418.63;;;22.97;66.83
30584;BME280;17357;59.404;18.414;2022-08-24T12:30:15;102422.41;;;23.01;66.64
30584;BME280;17357;59.404;18.414;2022-08-24T12:32:45;102418.41;;;23.02;67.01
30584;BME280;17357;59.404;18.414;2022-08-24T12:35:17;102422.88;;;22.91;67.01
30584;BME280;17357;59.404;18.414;2022-08-24T12:37:47;102424.78;;;22.99;67.02
30584;BME280;17357;59.404;18.414;2022-08-24T12:42:58;102413.47;;;22.99;67.00
30584;BME280;17357;59.404;18.414;2022-08-24T12:45:25;102423.38;;;23.05;67.02
30584;BME280;17357;59.404;18.414;2022-08-24T12:50:48;102420.91;;;23.04;67.43
30584;BME280;17357;59.404;18.414;2022-08-24T13:01:17;102418.41;;;23.02;67.99
30584;BME280;17357;59.404;18.414;2022-08-24T13:03:47;102407.56;;;23.04;68.17
30584;BME280;17357;59.404;18.414;2022-08-24T13:06:26;102415.72;;;23.06;68.86
30584;BME280;17357;59.404;18.414;2022-08-24T13:09:04;102408.25;;;23.01;69.06
30584;BME280;17357;59.404;18.414;2022-08-24T13:11:33;102425.50;;;23.08;69.09
30584;BME280;17357;59.404;18.414;2022-08-24T13:14:15;102418.91;;;23.04;69.04
30584;BME280;17357;59.404;18.414;2022-08-24T13:19:36;102428.06;;;23.01;68.23
30584;BME280;17357;59.404;18.414;2022-08-24T13:32:21;102438.94;;;22.99;66.89
30584;BME280;17357;59.404;18.414;2022-08-24T13:34:55;102433.72;;;23.01;66.53
30584;BME280;17357;59.404;18.414;2022-08-24T13:37:23;102435.38;;;23.02;66.70
30584;BME280;17357;59.404;18.414;2022-08-24T13:50:56;102427.13;;;22.97;66.53
30584;BME280;17357;59.404;18.414;2022-08-24T13:56:48;102428.66;;;22.95;66.47
30584;BME280;17357;59.404;18.414;2022-08-24T14:00:29;102431.94;;;22.97;66.83
30584;BME280;17357;59.404;18.414;2022-08-24T14:15:23;102429.28;;;23.00;66.04
30584;BME280;17357;59.404;18.414;2022-08-24T14:23:05;102438.22;;;23.02;65.85
30584;BME280;17357;59.404;18.414;2022-08-24T14:25:33;102426.44;;;23.00;65.94
30584;BME280;17357;59.404;18.414;2022-08-24T14:35:29;102417.56;;;23.02;66.10
30584;BME280;17357;59.404;18.414;2022-08-24T14:43:58;102418.16;;;22.95;66.22
30584;BME280;17357;59.404;18.414;2022-08-24T14:49:28;102419.94;;;23.00;66.50
30584;BME280;17357;59.404;18.414;2022-08-24T14:55:21;102417.81;;;22.97;66.81
30584;BME280;17357;59.404;18.414;2022-08-24T15:06:35;102427.38;;;23.04;68.03
30584;BME280;17357;59.404;18.414;2022-08-24T15:09:17;102432.69;;;23.06;68.45
30584;BME280;17357;59.404;18.414;2022-08-24T15:11:43;102421.38;;;23.06;68.27
30584;BME280;17357;59.404;18.414;2022-08-24T15:14:21;102435.38;;;23.02;68.17
30584;BME280;17357;59.404;18.414;2022-08-24T15:16:52;102439.88;;;23.03;67.75
30584;BME280;17357;59.404;18.414;2022-08-24T15:22:41;102442.09;;;22.98;66.86
30584;BME280;17357;59.404;18.414;2022-08-24T15:25:14;102438.56;;;23.01;66.63
30584;BME280;17357;59.404;18.414;2022-08-24T15:27:52;102440.09;;;22.98;66.12
30584;BME280;17357;59.404;18.414;2022-08-24T15:35:34;102448.38;;;23.03;65.75
30584;BME280;17357;59.404;18.414;2022-08-24T15:40:49;102458.38;;;23.01;65.78
30584;BME280;17357;59.404;18.414;2022-08-24T15:43:16;102455.91;;;22.99;65.70
30584;BME280;17357;59.404;18.414;2022-08-24T15:45:47;102467.69;;;23.01;65.90
30584;BME280;17357;59.404;18.414;2022-08-24T15:48:16;102458.84;;;23.03;65.86
30584;BME280;17357;59.404;18.414;2022-08-24T15:50:45;102458.84;;;23.03;65.78
30584;BME280;17357;59.404;18.414;2022-08-24T15:53:26;102455.06;;;22.99;66.03
30584;BME280;17357;59.404;18.414;2022-08-24T15:55:52;102446.72;;;23.02;66.15
30584;BME280;17357;59.404;18.414;2022-08-24T15:58:35;102450.47;;;22.94;65.84
30584;BME280;17357;59.404;18.414;2022-08-24T16:01:23;102469.91;;;22.96;66.03
30584;BME280;17357;59.404;18.414;2022-08-24T16:04:43;102467.44;;;22.94;65.95
30584;BME280;17357;59.404;18.414;2022-08-24T16:07:20;102467.22;;;22.99;66.07
30584;BME280;17357;59.404;18.414;2022-08-24T16:09:47;102473.34;;;23.01;65.50
30584;BME280;17357;59.404;18.414;2022-08-24T16:12:22;102477.38;;;23.00;65.24
30584;BME280;17357;59.404;18.414;2022-08-24T16:15:06;102472.50;;;23.01;65.14
30584;BME280;17357;59.404;18.414;2022-08-24T16:17:34;102467.34;;;23.03;65.24
30584;BME280;17357;59.404;18.414;2022-08-24T16:20:03;102472.50;;;23.01;65.18
30584;BME280;17357;59.404;18.414;2022-08-24T16:22:35;102468.06;;;23.00;64.78
30584;BME280;17357;59.404;18.414;2022-08-24T16:30:47;102479.00;;;23.01;65.08